Time;durP1;ratioP1;P1;durP2;ratioP2;P2;SDS_P1;SDS_P2;PMS_P1;PMS_P2;Temp;Humidity;BMP_temperature;BMP_pressure;BME280_temperature;BME280_humidity;BME280_pressure;Samples;Min_cycle;Max_cycle;Signal;HPM_P1;HPM_P2
2022/09/13 00:00:18;;;;;;;;;;;18.30;86.90;;;;;;6339858;22;20006;-91
2022/09/13 00:02:44;;;;;;;;;;;18.30;86.90;;;;;;6339657;22;20112;-91
2022/09/13 00:05:10;;;;;;;;;;;18.30;87.00;;;;;;6339832;22;19942;-91
2022/09/13 00:07:35;;;;;;;;;;;18.30;86.90;;;;;;6339341;22;19958;-91
2022/09/13 00:10:01;;;;;;;;;;;18.30;87.10;;;;;;6339732;22;20264;-91
2022/09/13 00:12:26;;;;;;;;;;;18.10;87.00;;;;;;6339961;22;19949;-91
2022/09/13 00:14:52;;;;;;;;;;;18.10;87.40;;;;;;6339498;22;20276;-91
2022/09/13 00:17:17;;;;;;;;;;;18.20;87.70;;;;;;6339748;22;19937;-91
2022/09/13 00:19:43;;;;;;;;;;;18.10;87.40;;;;;;6339771;22;19939;-91
2022/09/13 00:22:08;;;;;;;;;;;18.20;87.70;;;;;;6339525;22;19940;-91
2022/09/13 00:24:34;;;;;;;;;;;18.20;87.40;;;;;;6339831;22;19965;-91
2022/09/13 00:27:00;;;;;;;;;;;18.20;87.50;;;;;;6340055;22;19939;-91
2022/09/13 00:29:26;;;;;;;;;;;18.10;87.20;;;;;;6339595;22;20007;-91
2022/09/13 00:31:52;;;;;;;;;;;18.00;86.60;;;;;;6339785;22;19943;-91
2022/09/13 00:34:17;;;;;;;;;;;18.00;87.00;;;;;;6339682;22;20347;-91
2022/09/13 00:36:43;;;;;;;;;;;18.00;87.10;;;;;;6339512;22;19957;-91
2022/09/13 00:39:09;;;;;;;;;;;18.00;86.90;;;;;;6339550;22;19938;-91
2022/09/13 00:41:35;;;;;;;;;;;18.00;86.50;;;;;;6339588;22;20339;-91
2022/09/13 00:44:01;;;;;;;;;;;17.90;86.20;;;;;;6339251;22;19965;-91
2022/09/13 00:46:32;;;;;;;;;;;17.90;86.30;;;;;;6339559;22;19931;-91
2022/09/13 00:49:19;;;;;;;;;;;17.90;86.80;;;;;;6339432;22;19987;-91
2022/09/13 00:51:48;;;;;;;;;;;17.90;87.00;;;;;;6339260;22;19948;-91
2022/09/13 00:54:15;;;;;;;;;;;17.90;87.10;;;;;;6338890;22;20000;-91
2022/09/13 00:56:44;;;;;;;;;;;17.90;87.50;;;;;;6339333;22;19957;-91
2022/09/13 00:59:12;;;;;;;;;;;17.90;88.00;;;;;;6339670;22;20399;-91
2022/09/13 01:01:45;;;;;;;;;;;17.80;87.90;;;;;;6339498;22;19983;-91
2022/09/13 01:04:11;;;;;;;;;;;17.80;88.60;;;;;;6339291;22;19938;-91
2022/09/13 01:06:37;;;;;;;;;;;17.80;88.70;;;;;;6339318;22;19930;-91
2022/09/13 01:09:03;;;;;;;;;;;17.80;88.50;;;;;;6338943;22;19930;-91
2022/09/13 01:11:44;;;;;;;;;;;17.80;88.60;;;;;;6339367;22;19936;-91
2022/09/13 01:14:10;;;;;;;;;;;17.80;88.50;;;;;;6339305;22;19935;-92
2022/09/13 01:16:35;;;;;;;;;;;17.70;88.60;;;;;;6339274;22;19958;-91
2022/09/13 01:19:01;;;;;;;;;;;17.80;88.60;;;;;;6339253;22;19960;-91
2022/09/13 01:21:27;;;;;;;;;;;17.80;88.50;;;;;;6339358;22;20361;-91
2022/09/13 01:23:56;;;;;;;;;;;17.70;88.30;;;;;;6339182;22;19934;-91
2022/09/13 01:26:30;;;;;;;;;;;17.70;88.10;;;;;;6339246;22;19937;-91
2022/09/13 01:28:56;;;;;;;;;;;17.60;88.00;;;;;;6339584;22;19942;-91
2022/09/13 01:31:21;;;;;;;;;;;17.50;88.20;;;;;;6338907;22;20237;-91
2022/09/13 01:34:06;;;;;;;;;;;17.60;88.50;;;;;;6339224;22;20401;-91
2022/09/13 01:36:47;;;;;;;;;;;17.60;88.80;;;;;;6339171;22;20008;-91
2022/09/13 01:39:16;;;;;;;;;;;17.60;89.10;;;;;;6339341;22;19942;-91
2022/09/13 01:41:42;;;;;;;;;;;17.50;88.60;;;;;;6339199;22;19933;-91
2022/09/13 01:44:26;;;;;;;;;;;17.40;88.40;;;;;;6339151;22;19942;-91
2022/09/13 01:46:51;;;;;;;;;;;17.40;88.50;;;;;;6338897;22;19960;-91
2022/09/13 01:49:24;;;;;;;;;;;17.60;88.40;;;;;;6338674;22;20257;-91
2022/09/13 01:52:05;;;;;;;;;;;17.60;88.30;;;;;;6339026;22;19952;-91
2022/09/13 01:54:30;;;;;;;;;;;17.60;88.40;;;;;;6339049;22;20513;-91
2022/09/13 01:57:03;;;;;;;;;;;17.70;88.00;;;;;;6340538;22;20002;-91
2022/09/13 01:59:38;;;;;;;;;;;17.60;87.90;;;;;;6341027;22;19986;-92
2022/09/13 02:02:09;;;;;;;;;;;17.50;87.30;;;;;;6341147;22;19938;-91
2022/09/13 02:04:41;;;;;;;;;;;17.40;87.50;;;;;;6341132;22;19936;-91
2022/09/13 02:07:29;;;;;;;;;;;17.50;87.60;;;;;;6340909;22;19945;-91
2022/09/13 02:10:01;;;;;;;;;;;17.50;88.00;;;;;;6341008;22;20262;-91
2022/09/13 02:12:30;;;;;;;;;;;17.60;87.80;;;;;;6341328;22;20304;-91
2022/09/13 02:15:11;;;;;;;;;;;17.40;88.00;;;;;;6340973;22;19941;-91
2022/09/13 02:17:37;;;;;;;;;;;17.40;88.30;;;;;;6340723;22;19959;-91
2022/09/13 02:20:10;;;;;;;;;;;17.30;88.00;;;;;;6340936;22;19935;-91
2022/09/13 02:22:39;;;;;;;;;;;17.30;88.10;;;;;;6340658;22;19983;-91
2022/09/13 02:25:08;;;;;;;;;;;17.30;88.20;;;;;;6340954;22;19943;-91
2022/09/13 02:27:35;;;;;;;;;;;17.30;88.50;;;;;;6340749;22;19932;-91
2022/09/13 02:30:03;;;;;;;;;;;17.20;88.70;;;;;;6340918;22;19955;-91
2022/09/13 02:32:31;;;;;;;;;;;17.10;88.50;;;;;;6340754;22;20253;-91
2022/09/13 02:35:01;;;;;;;;;;;17.10;88.60;;;;;;6340501;22;19941;-91
2022/09/13 02:37:28;;;;;;;;;;;17.10;88.70;;;;;;6340518;22;19932;-91
2022/09/13 02:39:56;;;;;;;;;;;17.10;88.90;;;;;;6340776;22;19940;-91
2022/09/13 02:42:25;;;;;;;;;;;17.10;88.60;;;;;;6340631;22;20343;-91
2022/09/13 02:44:52;;;;;;;;;;;17.00;88.50;;;;;;6340612;22;19966;-91
2022/09/13 02:47:36;;;;;;;;;;;17.00;88.90;;;;;;6340526;22;20068;-91
2022/09/13 02:50:20;;;;;;;;;;;17.00;89.20;;;;;;6340455;22;19941;-91
2022/09/13 02:52:46;;;;;;;;;;;16.90;89.40;;;;;;6340281;22;19952;-91
2022/09/13 02:55:17;;;;;;;;;;;16.90;89.50;;;;;;6340022;22;20392;-91
2022/09/13 02:58:06;;;;;;;;;;;16.90;89.50;;;;;;6340274;22;19932;-91
2022/09/13 03:00:31;;;;;;;;;;;16.90;89.50;;;;;;6340309;22;20233;-91
2022/09/13 03:02:58;;;;;;;;;;;17.00;89.30;;;;;;6340447;22;19938;-91
2022/09/13 03:05:24;;;;;;;;;;;17.00;89.20;;;;;;6340299;22;20000;-91
2022/09/13 03:07:50;;;;;;;;;;;17.00;89.30;;;;;;6340075;22;20258;-91
2022/09/13 03:10:16;;;;;;;;;;;16.90;89.10;;;;;;6340550;22;19944;-91
2022/09/13 03:12:44;;;;;;;;;;;16.90;88.60;;;;;;6340461;22;19930;-91
2022/09/13 03:15:15;;;;;;;;;;;16.80;87.90;;;;;;6340007;22;19928;-91
2022/09/13 03:17:41;;;;;;;;;;;16.80;87.70;;;;;;6340077;22;20008;-91
2022/09/13 03:20:09;;;;;;;;;;;16.80;88.10;;;;;;6340413;22;20012;-91
2022/09/13 03:22:34;;;;;;;;;;;16.80;88.30;;;;;;6340033;22;19958;-91
2022/09/13 03:25:03;;;;;;;;;;;16.90;88.60;;;;;;6340270;22;19971;-91
2022/09/13 03:27:31;;;;;;;;;;;17.00;88.70;;;;;;6340217;22;19938;-91
2022/09/13 03:30:06;;;;;;;;;;;17.00;88.80;;;;;;6340178;22;19944;-92
2022/09/13 03:32:56;;;;;;;;;;;17.00;89.00;;;;;;6340213;22;19978;-92
2022/09/13 03:35:22;;;;;;;;;;;16.90;89.10;;;;;;6340412;22;20005;-91
2022/09/13 03:38:08;;;;;;;;;;;16.90;89.00;;;;;;6339926;22;19942;-91
2022/09/13 03:40:36;;;;;;;;;;;16.80;88.20;;;;;;6312837;22;20267;-91
2022/09/13 03:43:05;;;;;;;;;;;16.80;87.90;;;;;;6340208;22;19952;-91
2022/09/13 03:45:34;;;;;;;;;;;16.70;87.90;;;;;;6340100;22;19965;-91
2022/09/13 03:48:00;;;;;;;;;;;16.70;88.20;;;;;;6340067;22;19928;-91
2022/09/13 03:50:26;;;;;;;;;;;16.70;88.60;;;;;;6339750;22;19939;-91
2022/09/13 03:53:10;;;;;;;;;;;16.60;88.70;;;;;;6339835;22;20307;-91
2022/09/13 03:55:41;;;;;;;;;;;16.60;88.90;;;;;;6306792;22;19971;-91
2022/09/13 03:58:10;;;;;;;;;;;16.60;88.90;;;;;;6308667;22;19938;-91
2022/09/13 04:00:37;;;;;;;;;;;16.70;88.70;;;;;;6308850;22;19942;-91
2022/09/13 04:03:03;;;;;;;;;;;16.70;88.60;;;;;;6308632;22;20274;-91
2022/09/13 04:05:28;;;;;;;;;;;16.60;89.10;;;;;;6308623;22;19939;-91
2022/09/13 04:07:54;;;;;;;;;;;16.60;89.30;;;;;;6308564;22;20345;-91
2022/09/13 04:10:20;;;;;;;;;;;16.60;89.40;;;;;;6308728;22;19938;-91
2022/09/13 04:12:46;;;;;;;;;;;16.70;89.10;;;;;;6308520;22;19937;-91
2022/09/13 04:15:11;;;;;;;;;;;16.70;89.00;;;;;;6306606;22;20028;-91
2022/09/13 04:17:37;;;;;;;;;;;16.70;89.10;;;;;;6308354;22;20029;-91
2022/09/13 04:20:04;;;;;;;;;;;16.80;88.90;;;;;;6308323;22;20025;-91
2022/09/13 04:22:30;;;;;;;;;;;16.80;89.00;;;;;;6308442;22;19940;-91
2022/09/13 04:24:55;;;;;;;;;;;16.80;89.10;;;;;;6308213;22;19938;-91
2022/09/13 04:27:21;;;;;;;;;;;16.90;89.10;;;;;;6308377;22;20416;-91
2022/09/13 04:29:47;;;;;;;;;;;17.00;89.10;;;;;;6308532;22;20017;-91
2022/09/13 04:32:12;;;;;;;;;;;16.90;88.50;;;;;;6308051;22;19944;-91
2022/09/13 04:34:38;;;;;;;;;;;16.80;88.60;;;;;;6308193;22;19947;-91
2022/09/13 04:37:03;;;;;;;;;;;16.80;88.10;;;;;;6308291;22;19955;-91
2022/09/13 04:39:29;;;;;;;;;;;16.70;88.50;;;;;;6308081;22;19975;-91
2022/09/13 04:41:55;;;;;;;;;;;16.70;89.00;;;;;;6306281;22;19946;-91
2022/09/13 04:44:23;;;;;;;;;;;16.80;89.20;;;;;;6306440;22;19963;-91
2022/09/13 04:46:49;;;;;;;;;;;16.90;89.50;;;;;;6308257;22;19939;-92
2022/09/13 04:49:16;;;;;;;;;;;17.00;89.10;;;;;;6306678;22;20379;-91
2022/09/13 04:51:41;;;;;;;;;;;17.00;88.80;;;;;;6308165;22;20366;-91
2022/09/13 04:54:07;;;;;;;;;;;17.10;88.70;;;;;;6315415;22;20043;-91
2022/09/13 04:56:33;;;;;;;;;;;17.10;88.60;;;;;;6339167;22;19994;-91
2022/09/13 04:58:58;;;;;;;;;;;17.10;88.80;;;;;;6339559;22;19931;-91
2022/09/13 05:01:24;;;;;;;;;;;17.30;89.10;;;;;;6338815;22;19936;-91
2022/09/13 05:03:54;;;;;;;;;;;17.30;89.20;;;;;;6338521;22;20268;-91
2022/09/13 05:06:20;;;;;;;;;;;17.20;89.20;;;;;;6339132;22;19935;-91
2022/09/13 05:08:51;;;;;;;;;;;17.20;89.40;;;;;;6339194;22;19939;-91
2022/09/13 05:11:17;;;;;;;;;;;17.20;89.40;;;;;;6311295;22;19942;-91
2022/09/13 05:13:42;;;;;;;;;;;17.20;89.60;;;;;;6339219;22;19938;-91
2022/09/13 05:16:08;;;;;;;;;;;17.30;89.40;;;;;;6338888;22;19968;-91
2022/09/13 05:18:35;;;;;;;;;;;17.30;89.30;;;;;;6310789;22;19937;-91
2022/09/13 05:21:02;;;;;;;;;;;17.20;89.30;;;;;;6339206;22;19956;-91
2022/09/13 05:23:28;;;;;;;;;;;17.20;89.50;;;;;;6338849;22;19930;-91
2022/09/13 05:25:53;;;;;;;;;;;17.10;89.70;;;;;;6339380;22;20349;-91
2022/09/13 05:28:20;;;;;;;;;;;17.10;89.90;;;;;;6338367;22;19987;-91
2022/09/13 05:30:53;;;;;;;;;;;17.10;90.00;;;;;;6337996;22;19944;-91
2022/09/13 05:33:18;;;;;;;;;;;17.10;90.10;;;;;;6338007;22;20064;-91
2022/09/13 05:35:44;;;;;;;;;;;17.10;90.10;;;;;;6338712;22;20053;-91
2022/09/13 05:38:09;;;;;;;;;;;17.10;90.20;;;;;;6338962;22;19969;-91
2022/09/13 05:40:35;;;;;;;;;;;17.30;90.00;;;;;;6339239;22;20359;-91
2022/09/13 05:43:01;;;;;;;;;;;17.30;89.70;;;;;;6338759;22;19937;-91
2022/09/13 05:45:26;;;;;;;;;;;17.40;89.60;;;;;;6338619;22;20266;-91
2022/09/13 05:47:52;;;;;;;;;;;17.40;89.60;;;;;;6338077;22;20304;-91
2022/09/13 05:50:17;;;;;;;;;;;17.40;89.50;;;;;;6338538;22;19965;-92
2022/09/13 05:52:43;;;;;;;;;;;17.40;89.60;;;;;;6338473;22;19945;-91
2022/09/13 05:55:08;;;;;;;;;;;17.50;89.80;;;;;;6338745;22;20333;-91
2022/09/13 05:57:36;;;;;;;;;;;17.70;89.90;;;;;;6338160;22;20353;-91
2022/09/13 06:00:02;;;;;;;;;;;17.80;89.80;;;;;;6310832;22;19935;-91
2022/09/13 06:02:29;;;;;;;;;;;17.90;89.70;;;;;;6338457;22;19943;-91
2022/09/13 06:04:55;;;;;;;;;;;18.00;89.70;;;;;;6338408;22;20378;-91
2022/09/13 06:07:20;;;;;;;;;;;18.10;89.60;;;;;;6338497;22;19963;-91
2022/09/13 06:09:46;;;;;;;;;;;18.30;89.60;;;;;;6338447;22;19936;-92
2022/09/13 06:12:12;;;;;;;;;;;18.40;89.40;;;;;;6337729;22;19940;-92
2022/09/13 06:14:37;;;;;;;;;;;18.50;89.10;;;;;;6338750;22;19997;-92
2022/09/13 06:17:03;;;;;;;;;;;18.60;88.60;;;;;;6338756;22;19957;-91
2022/09/13 06:19:28;;;;;;;;;;;18.60;88.10;;;;;;6310743;22;19968;-91
2022/09/13 06:21:54;;;;;;;;;;;18.60;87.70;;;;;;6339035;22;19932;-91
2022/09/13 06:24:19;;;;;;;;;;;18.70;87.50;;;;;;6339091;22;19940;-91
2022/09/13 06:26:45;;;;;;;;;;;18.70;87.40;;;;;;6311199;22;20313;-91
2022/09/13 06:29:11;;;;;;;;;;;18.80;87.30;;;;;;6338493;22;19964;-91
2022/09/13 06:31:37;;;;;;;;;;;18.80;87.20;;;;;;6332555;22;19957;-91
2022/09/13 06:34:03;;;;;;;;;;;18.70;87.10;;;;;;6338758;22;19935;-92
2022/09/13 06:36:30;;;;;;;;;;;18.70;87.20;;;;;;6338188;22;20016;-91
2022/09/13 06:38:56;;;;;;;;;;;18.80;87.20;;;;;;6338343;22;19942;-91
2022/09/13 06:41:22;;;;;;;;;;;18.90;87.00;;;;;;6338667;22;20442;-92
2022/09/13 06:43:54;;;;;;;;;;;19.00;86.70;;;;;;6340427;22;19944;-92
2022/09/13 06:46:20;;;;;;;;;;;19.10;86.10;;;;;;6340532;22;19932;-92
2022/09/13 06:48:47;;;;;;;;;;;19.30;85.50;;;;;;6340828;22;19978;-92
2022/09/13 06:51:17;;;;;;;;;;;19.40;84.80;;;;;;6340446;22;20025;-91
2022/09/13 06:53:44;;;;;;;;;;;19.50;84.10;;;;;;6339666;22;19939;-92
2022/09/13 06:56:11;;;;;;;;;;;19.60;83.80;;;;;;6340629;22;19955;-92
2022/09/13 06:58:37;;;;;;;;;;;19.70;83.70;;;;;;6340824;22;19957;-92
2022/09/13 07:01:11;;;;;;;;;;;19.70;83.50;;;;;;6340675;22;20346;-92
2022/09/13 07:03:37;;;;;;;;;;;19.80;83.20;;;;;;6313000;22;20265;-92
2022/09/13 07:06:13;;;;;;;;;;;19.80;82.70;;;;;;6340939;22;19941;-91
2022/09/13 07:08:40;;;;;;;;;;;19.90;82.60;;;;;;6313083;22;20269;-92
2022/09/13 07:11:06;;;;;;;;;;;20.00;82.30;;;;;;6340226;22;19946;-92
2022/09/13 07:13:32;;;;;;;;;;;20.10;81.70;;;;;;6340180;22;19935;-92
2022/09/13 07:16:00;;;;;;;;;;;20.10;81.40;;;;;;6340128;22;20051;-92
2022/09/13 07:18:25;;;;;;;;;;;20.30;81.00;;;;;;6340192;22;19979;-92
2022/09/13 07:20:51;;;;;;;;;;;20.30;80.60;;;;;;6340499;22;19933;-92
2022/09/13 07:23:16;;;;;;;;;;;20.30;80.30;;;;;;6340114;22;19969;-92
2022/09/13 07:25:42;;;;;;;;;;;20.40;80.10;;;;;;6339797;22;20002;-92
2022/09/13 07:28:07;;;;;;;;;;;20.50;80.00;;;;;;6338919;22;20340;-92
2022/09/13 07:30:33;;;;;;;;;;;20.60;80.00;;;;;;6339616;22;19967;-92
2022/09/13 07:32:58;;;;;;;;;;;20.70;79.80;;;;;;6311910;22;19934;-92
2022/09/13 07:35:24;;;;;;;;;;;20.80;79.70;;;;;;6338789;22;20296;-92
2022/09/13 07:37:49;;;;;;;;;;;20.80;78.60;;;;;;6338757;22;20331;-92
2022/09/13 07:40:15;;;;;;;;;;;20.80;78.20;;;;;;6339384;22;20273;-92
2022/09/13 07:42:40;;;;;;;;;;;20.90;78.10;;;;;;6339873;22;19943;-92
2022/09/13 07:45:06;;;;;;;;;;;21.00;78.00;;;;;;6339738;22;20012;-92
2022/09/13 07:47:32;;;;;;;;;;;21.10;78.20;;;;;;6340071;22;19937;-92
2022/09/13 07:49:58;;;;;;;;;;;21.20;78.00;;;;;;6339562;22;20016;-93
2022/09/13 07:52:23;;;;;;;;;;;21.30;78.00;;;;;;6340213;22;19949;-93
2022/09/13 07:54:49;;;;;;;;;;;21.30;77.90;;;;;;6311456;22;19975;-92
2022/09/13 07:57:14;;;;;;;;;;;21.50;77.70;;;;;;6340270;22;19956;-92
2022/09/13 07:59:40;;;;;;;;;;;21.60;76.60;;;;;;6340304;22;19929;-92
2022/09/13 08:02:08;;;;;;;;;;;21.70;75.80;;;;;;6339998;22;19992;-92
2022/09/13 08:04:33;;;;;;;;;;;21.80;76.10;;;;;;6340052;22;19929;-92
2022/09/13 08:06:59;;;;;;;;;;;22.00;75.90;;;;;;6339975;22;19938;-92
2022/09/13 08:09:24;;;;;;;;;;;22.10;75.90;;;;;;6339839;22;19932;-93
2022/09/13 08:11:51;;;;;;;;;;;22.20;75.70;;;;;;6340150;22;20307;-92
2022/09/13 08:14:18;;;;;;;;;;;22.30;75.20;;;;;;6340288;22;20011;-92
2022/09/13 08:16:43;;;;;;;;;;;22.30;74.60;;;;;;6312540;22;20355;-92
2022/09/13 08:19:11;;;;;;;;;;;22.30;75.00;;;;;;6340483;22;19932;-92
2022/09/13 08:21:37;;;;;;;;;;;22.40;75.00;;;;;;6340177;22;19930;-92
2022/09/13 08:24:04;;;;;;;;;;;22.50;75.00;;;;;;6340049;22;20187;-93
2022/09/13 08:26:31;;;;;;;;;;;22.50;74.70;;;;;;6312406;22;19934;-93
2022/09/13 08:28:57;;;;;;;;;;;22.60;74.70;;;;;;6340030;22;20277;-93
2022/09/13 08:31:23;;;;;;;;;;;22.60;74.50;;;;;;6340466;22;19938;-92
2022/09/13 08:33:49;;;;;;;;;;;22.60;73.60;;;;;;6339952;22;20238;-92
2022/09/13 08:36:15;;;;;;;;;;;22.80;72.40;;;;;;6339864;22;20028;-92
2022/09/13 08:38:45;;;;;;;;;;;22.80;72.50;;;;;;6340076;22;20375;-92
2022/09/13 08:41:14;;;;;;;;;;;22.80;72.90;;;;;;6339909;22;20394;-92
2022/09/13 08:43:39;;;;;;;;;;;22.90;72.30;;;;;;6339678;22;19934;-92
2022/09/13 08:46:12;;;;;;;;;;;23.00;71.90;;;;;;6339829;22;20011;-92
2022/09/13 08:48:39;;;;;;;;;;;23.10;70.80;;;;;;6339864;22;19965;-93
2022/09/13 08:51:06;;;;;;;;;;;23.20;71.60;;;;;;6338091;22;19949;-91
2022/09/13 08:53:37;;;;;;;;;;;23.20;71.80;;;;;;6336325;22;19936;-91
2022/09/13 08:56:15;;;;;;;;;;;23.40;72.80;;;;;;6336080;22;19954;-91
2022/09/13 08:58:45;;;;;;;;;;;23.50;71.70;;;;;;6311027;22;19936;-91
2022/09/13 09:01:19;;;;;;;;;;;23.60;69.40;;;;;;6336935;22;19940;-91
2022/09/13 09:03:51;;;;;;;;;;;23.70;68.80;;;;;;6336593;22;19938;-90
2022/09/13 09:06:17;;;;;;;;;;;23.70;68.40;;;;;;6337244;22;19933;-90
2022/09/13 09:08:55;;;;;;;;;;;23.70;68.50;;;;;;6336901;22;19946;-91
2022/09/13 09:11:39;;;;;;;;;;;23.80;69.00;;;;;;6335970;22;19942;-91
2022/09/13 09:14:07;;;;;;;;;;;23.80;68.90;;;;;;6307916;22;19945;-91
2022/09/13 09:16:46;;;;;;;;;;;24.00;68.40;;;;;;6336063;22;19994;-91
2022/09/13 09:19:24;;;;;;;;;;;24.10;68.20;;;;;;6338152;22;19931;-91
2022/09/13 09:21:50;;;;;;;;;;;24.20;67.70;;;;;;6307388;22;19942;-90
2022/09/13 09:24:24;;;;;;;;;;;24.30;65.30;;;;;;6333444;22;20408;-91
2022/09/13 09:26:49;;;;;;;;;;;24.30;65.90;;;;;;6333034;22;19939;-91
2022/09/13 09:29:18;;;;;;;;;;;24.30;66.60;;;;;;6333033;22;19940;-91
2022/09/13 09:31:58;;;;;;;;;;;24.30;66.60;;;;;;6334905;22;19937;-90
2022/09/13 09:34:24;;;;;;;;;;;24.40;64.60;;;;;;6335594;22;19961;-90
2022/09/13 09:36:49;;;;;;;;;;;24.50;64.80;;;;;;6336773;22;19958;-91
2022/09/13 09:39:15;;;;;;;;;;;24.60;64.50;;;;;;6336326;22;19939;-90
2022/09/13 09:41:41;;;;;;;;;;;24.60;65.60;;;;;;6308704;22;19996;-90
2022/09/13 09:44:16;;;;;;;;;;;24.60;64.20;;;;;;6333153;22;19938;-90
2022/09/13 09:46:42;;;;;;;;;;;24.70;64.50;;;;;;6336720;22;19957;-91
2022/09/13 09:52:09;;;;;;;;;;;24.90;65.00;;;;;;6338684;22;20005;-91
2022/09/13 09:54:36;;;;;;;;;;;25.00;62.70;;;;;;6337031;22;20043;-90
2022/09/13 09:57:03;;;;;;;;;;;25.10;61.90;;;;;;6338436;22;19957;-90
2022/09/13 09:59:32;;;;;;;;;;;25.00;61.50;;;;;;6337893;22;19934;-90
2022/09/13 10:01:58;;;;;;;;;;;25.10;63.00;;;;;;6337432;22;19929;-90
2022/09/13 10:04:24;;;;;;;;;;;25.30;62.60;;;;;;6335924;22;19945;-91
2022/09/13 10:07:06;;;;;;;;;;;25.50;60.50;;;;;;6334754;22;20269;-90
2022/09/13 10:09:31;;;;;;;;;;;25.50;59.30;;;;;;6337163;22;19937;-90
2022/09/13 10:11:58;;;;;;;;;;;25.60;60.40;;;;;;6337187;22;20260;-90
2022/09/13 10:14:30;;;;;;;;;;;25.70;60.80;;;;;;6338479;22;19963;-90
2022/09/13 10:17:21;;;;;;;;;;;25.70;61.20;;;;;;6338892;22;20046;-90
2022/09/13 10:19:58;;;;;;;;;;;25.90;61.90;;;;;;6332505;22;19947;-90
2022/09/13 10:22:24;;;;;;;;;;;26.00;60.60;;;;;;6339883;22;19932;-90
2022/09/13 10:24:50;;;;;;;;;;;26.20;57.80;;;;;;6338794;22;19939;-90
2022/09/13 10:27:30;;;;;;;;;;;26.20;56.60;;;;;;6340253;22;19934;-90
2022/09/13 10:29:58;;;;;;;;;;;26.20;57.90;;;;;;6339475;22;20031;-90
2022/09/13 10:32:25;;;;;;;;;;;26.10;56.30;;;;;;6339735;22;19929;-90
2022/09/13 10:34:50;;;;;;;;;;;26.00;56.70;;;;;;6339566;22;19983;-90
2022/09/13 10:37:19;;;;;;;;;;;25.90;57.80;;;;;;6339967;22;19962;-90
2022/09/13 10:40:07;;;;;;;;;;;26.00;56.70;;;;;;6339925;22;19954;-90
2022/09/13 10:42:33;;;;;;;;;;;26.10;56.90;;;;;;6335261;22;20393;-90
2022/09/13 10:45:01;;;;;;;;;;;26.20;56.80;;;;;;6340112;22;20033;-90
2022/09/13 10:47:46;;;;;;;;;;;26.20;55.60;;;;;;6310962;22;19946;-90
2022/09/13 10:50:12;;;;;;;;;;;26.30;56.10;;;;;;6339556;22;19941;-90
2022/09/13 10:52:42;;;;;;;;;;;26.40;54.80;;;;;;6339950;22;19982;-90
2022/09/13 10:55:19;;;;;;;;;;;26.60;55.20;;;;;;6311639;22;20307;-90
2022/09/13 10:57:46;;;;;;;;;;;26.70;53.50;;;;;;6339393;22;20040;-90
2022/09/13 11:00:14;;;;;;;;;;;26.60;53.40;;;;;;6338691;22;19987;-90
2022/09/13 11:02:59;;;;;;;;;;;26.70;53.50;;;;;;6340432;22;19939;-90
2022/09/13 11:05:24;;;;;;;;;;;26.80;54.50;;;;;;6339869;22;19942;-90
2022/09/13 11:07:59;;;;;;;;;;;26.90;51.80;;;;;;6340178;22;20013;-90
2022/09/13 11:10:35;;;;;;;;;;;26.90;52.40;;;;;;6340034;22;19943;-90
2022/09/13 11:13:20;;;;;;;;;;;27.10;51.90;;;;;;6339065;22;20238;-90
2022/09/13 11:16:06;;;;;;;;;;;27.20;51.70;;;;;;6339103;22;20045;-90
2022/09/13 11:18:53;;;;;;;;;;;27.20;50.60;;;;;;6234697;22;20327;-90
2022/09/13 11:21:31;;;;;;;;;;;27.20;51.10;;;;;;6338801;22;19944;-91
2022/09/13 11:24:08;;;;;;;;;;;27.30;51.40;;;;;;6339357;22;19952;-91
2022/09/13 11:26:37;;;;;;;;;;;27.50;51.10;;;;;;6339222;22;19940;-91
2022/09/13 11:29:21;;;;;;;;;;;27.90;49.30;;;;;;6336417;22;19960;-91
2022/09/13 11:31:47;;;;;;;;;;;28.20;49.70;;;;;;6308853;22;19943;-91
2022/09/13 11:34:12;;;;;;;;;;;28.20;49.40;;;;;;6337285;22;20064;-91
2022/09/13 11:36:38;;;;;;;;;;;28.20;48.90;;;;;;6337555;22;20059;-91
2022/09/13 11:39:12;;;;;;;;;;;28.30;49.50;;;;;;6337863;22;19997;-90
2022/09/13 11:41:53;;;;;;;;;;;28.00;49.60;;;;;;6337172;22;20413;-90
2022/09/13 11:44:24;;;;;;;;;;;27.90;49.70;;;;;;6335928;22;20010;-90
2022/09/13 11:46:55;;;;;;;;;;;28.30;49.10;;;;;;6336806;22;19986;-91
2022/09/13 11:49:40;;;;;;;;;;;28.70;48.10;;;;;;6338260;22;19945;-91
2022/09/13 11:52:12;;;;;;;;;;;28.80;49.40;;;;;;6337836;22;19952;-91
2022/09/13 11:54:44;;;;;;;;;;;29.10;48.10;;;;;;6304051;22;19991;-90
2022/09/13 11:57:13;;;;;;;;;;;29.10;46.80;;;;;;6306235;22;20018;-91
2022/09/13 11:59:45;;;;;;;;;;;29.10;45.40;;;;;;6306470;22;19940;-91
2022/09/13 12:02:13;;;;;;;;;;;29.40;45.90;;;;;;6306894;22;20016;-91
2022/09/13 12:04:57;;;;;;;;;;;29.70;45.70;;;;;;6304786;22;20411;-90
2022/09/13 12:07:33;;;;;;;;;;;29.20;45.90;;;;;;6307465;22;19935;-91
2022/09/13 12:10:19;;;;;;;;;;;28.70;48.30;;;;;;6306007;22;19970;-91
2022/09/13 12:12:48;;;;;;;;;;;28.50;48.40;;;;;;6306468;22;20360;-91
2022/09/13 12:15:14;;;;;;;;;;;29.10;47.20;;;;;;6296403;22;19960;-91
2022/09/13 12:17:42;;;;;;;;;;;29.60;46.80;;;;;;6300157;22;19968;-91
2022/09/13 12:20:26;;;;;;;;;;;29.60;45.80;;;;;;6305074;22;20399;-91
2022/09/13 12:22:53;;;;;;;;;;;29.80;45.80;;;;;;6305322;22;19946;-91
2022/09/13 12:25:23;;;;;;;;;;;30.40;44.00;;;;;;6305928;22;19933;-91
2022/09/13 12:27:55;;;;;;;;;;;31.20;42.80;;;;;;6306870;22;19965;-92
2022/09/13 12:30:22;;;;;;;;;;;32.30;41.60;;;;;;6305999;22;19935;-91
2022/09/13 12:32:48;;;;;;;;;;;33.20;39.10;;;;;;6303056;22;20072;-91
2022/09/13 12:35:16;;;;;;;;;;;34.00;37.90;;;;;;6306499;22;19966;-91
2022/09/13 12:37:45;;;;;;;;;;;35.30;35.50;;;;;;6306703;22;20267;-92
2022/09/13 12:40:30;;;;;;;;;;;36.40;34.70;;;;;;6306786;22;20021;-92
2022/09/13 12:43:06;;;;;;;;;;;37.60;31.80;;;;;;6305997;22;20367;-91
2022/09/13 12:45:32;;;;;;;;;;;37.70;31.40;;;;;;6306228;22;20359;-92
2022/09/13 12:47:58;;;;;;;;;;;36.20;33.30;;;;;;6307864;22;19932;-92
2022/09/13 12:50:42;;;;;;;;;;;34.90;34.80;;;;;;6306492;22;20018;-92
2022/09/13 12:53:07;;;;;;;;;;;35.80;33.50;;;;;;6307046;22;20342;-92
2022/09/13 12:55:37;;;;;;;;;;;36.60;32.60;;;;;;6331661;22;19976;-92
2022/09/13 12:58:15;;;;;;;;;;;36.70;31.90;;;;;;6338737;22;19938;-91
2022/09/13 13:01:04;;;;;;;;;;;36.70;32.40;;;;;;6337849;22;20071;-92
2022/09/13 13:03:33;;;;;;;;;;;36.70;31.60;;;;;;6317661;22;19973;-92
2022/09/13 13:06:17;;;;;;;;;;;36.70;32.30;;;;;;6337042;22;20011;-92
2022/09/13 13:08:49;;;;;;;;;;;36.70;32.30;;;;;;6338366;22;19980;-92
2022/09/13 13:11:22;;;;;;;;;;;37.80;31.30;;;;;;6337432;22;19931;-92
2022/09/13 13:13:55;;;;;;;;;;;37.70;31.10;;;;;;6337623;22;19935;-92
2022/09/13 13:16:21;;;;;;;;;;;38.10;31.10;;;;;;6329975;22;19938;-92
2022/09/13 13:18:48;;;;;;;;;;;37.30;31.30;;;;;;6338473;22;20259;-92
2022/09/13 13:21:26;;;;;;;;;;;36.30;32.90;;;;;;6338298;22;19938;-92
2022/09/13 13:24:24;;;;;;;;;;;35.60;34.20;;;;;;6338035;22;20351;-92
2022/09/13 13:26:53;;;;;;;;;;;35.90;33.70;;;;;;6252276;22;19949;-92
2022/09/13 13:29:18;;;;;;;;;;;35.30;34.70;;;;;;6338615;22;19941;-92
2022/09/13 13:31:56;;;;;;;;;;;35.60;35.60;;;;;;6338807;22;19931;-92
2022/09/13 13:34:21;;;;;;;;;;;35.20;35.20;;;;;;6338153;22;19972;-93
2022/09/13 13:36:51;;;;;;;;;;;36.20;33.60;;;;;;6338342;22;19959;-92
2022/09/13 13:39:23;;;;;;;;;;;37.10;32.80;;;;;;6338318;22;19957;-93
2022/09/13 13:42:22;;;;;;;;;;;36.40;33.00;;;;;;6338306;22;19958;-92
2022/09/13 13:44:53;;;;;;;;;;;36.10;32.90;;;;;;6253262;22;19990;-92
2022/09/13 13:47:19;;;;;;;;;;;35.80;33.70;;;;;;6338308;22;19937;-92
2022/09/13 13:49:51;;;;;;;;;;;36.20;32.80;;;;;;6337307;22;20773;-92
2022/09/13 13:52:23;;;;;;;;;;;35.90;33.20;;;;;;6309341;22;19963;-93
2022/09/13 13:54:59;;;;;;;;;;;36.20;33.20;;;;;;6337870;22;19968;-93
2022/09/13 13:57:31;;;;;;;;;;;36.70;31.90;;;;;;6337871;22;19969;-93
2022/09/13 14:00:16;;;;;;;;;;;37.70;30.90;;;;;;6338809;22;19970;-93
2022/09/13 14:02:55;;;;;;;;;;;38.20;30.80;;;;;;6338514;22;19958;-93
2022/09/13 14:05:26;;;;;;;;;;;38.40;29.90;;;;;;6338095;22;19936;-92
2022/09/13 14:08:01;;;;;;;;;;;37.90;30.00;;;;;;6338293;22;19940;-92
2022/09/13 14:10:30;;;;;;;;;;;37.70;30.40;;;;;;6337432;22;20002;-92
2022/09/13 14:13:08;;;;;;;;;;;37.40;30.70;;;;;;6337952;22;19944;-92
2022/09/13 14:15:40;;;;;;;;;;;37.10;31.50;;;;;;6337332;22;20016;-92
2022/09/13 14:18:23;;;;;;;;;;;37.30;31.00;;;;;;6338521;22;19934;-92
2022/09/13 14:21:17;;;;;;;;;;;37.00;31.90;;;;;;6337832;22;19983;-92
2022/09/13 14:23:43;;;;;;;;;;;36.80;31.50;;;;;;6338078;22;20272;-92
2022/09/13 14:26:09;;;;;;;;;;;37.10;32.40;;;;;;6337712;22;19931;-92
2022/09/13 14:28:35;;;;;;;;;;;37.20;32.10;;;;;;6337475;22;19939;-92
2022/09/13 14:31:00;;;;;;;;;;;37.40;31.90;;;;;;6337623;22;20342;-92
2022/09/13 14:33:30;;;;;;;;;;;37.90;31.20;;;;;;6337504;22;20016;-92